sensor_id;sensor_type;location;lat;lon;timestamp;pressure;altitude;pressure_sealevel;temperature;humidity
57574;BME280;68988;49.000;21.242;2023-07-30T00:01:15;98113.56;;;26.55;49.58
57574;BME280;68988;49.000;21.242;2023-07-30T00:03:41;98103.91;;;26.54;49.44
57574;BME280;68988;49.000;21.242;2023-07-30T00:06:06;98112.47;;;26.56;49.36
57574;BME280;68988;49.000;21.242;2023-07-30T00:08:31;98112.97;;;26.58;49.29
57574;BME280;68988;49.000;21.242;2023-07-30T00:10:57;98111.69;;;26.56;49.26
57574;BME280;68988;49.000;21.242;2023-07-30T00:13:23;98097.41;;;26.55;49.64
57574;BME280;68988;49.000;21.242;2023-07-30T00:15:49;98106.59;;;26.54;49.43
57574;BME280;68988;49.000;21.242;2023-07-30T00:18:14;98093.66;;;26.56;49.57
57574;BME280;68988;49.000;21.242;2023-07-30T00:20:40;98096.81;;;26.58;49.49
57574;BME280;68988;49.000;21.242;2023-07-30T00:23:05;98103.63;;;26.56;49.32
57574;BME280;68988;49.000;21.242;2023-07-30T00:25:31;98103.31;;;26.57;49.44
57574;BME280;68988;49.000;21.242;2023-07-30T00:27:56;98105.47;;;26.55;49.20
57574;BME280;68988;49.000;21.242;2023-07-30T00:30:21;98100.41;;;26.54;49.40
57574;BME280;68988;49.000;21.242;2023-07-30T00:32:47;98103.09;;;26.54;49.05
57574;BME280;68988;49.000;21.242;2023-07-30T00:35:12;98088.88;;;26.53;49.56
57574;BME280;68988;49.000;21.242;2023-07-30T00:37:38;98077.63;;;26.51;49.41
57574;BME280;68988;49.000;21.242;2023-07-30T00:40:03;98074.81;;;26.56;48.91
57574;BME280;68988;49.000;21.242;2023-07-30T00:42:29;98068.44;;;26.52;49.28
57574;BME280;68988;49.000;21.242;2023-07-30T00:44:54;98063.88;;;26.53;49.29
57574;BME280;68988;49.000;21.242;2023-07-30T00:47:21;98066.34;;;26.49;49.54
57574;BME280;68988;49.000;21.242;2023-07-30T00:49:47;98087.84;;;26.49;49.41
57574;BME280;68988;49.000;21.242;2023-07-30T00:52:15;98090.53;;;26.49;49.14
57574;BME280;68988;49.000;21.242;2023-07-30T00:54:41;98084.97;;;26.45;49.70
57574;BME280;68988;49.000;21.242;2023-07-30T00:57:07;98095.44;;;26.47;49.68
57574;BME280;68988;49.000;21.242;2023-07-30T00:59:34;98078.00;;;26.44;49.39
57574;BME280;68988;49.000;21.242;2023-07-30T01:02:00;98077.63;;;26.51;49.01
57574;BME280;68988;49.000;21.242;2023-07-30T01:04:27;98075.53;;;26.48;49.52
57574;BME280;68988;49.000;21.242;2023-07-30T01:06:52;98079.78;;;26.49;49.41
57574;BME280;68988;49.000;21.242;2023-07-30T01:09:18;98077.09;;;26.49;49.62
57574;BME280;68988;49.000;21.242;2023-07-30T01:11:44;98064.78;;;26.48;49.49
57574;BME280;68988;49.000;21.242;2023-07-30T01:14:10;98057.50;;;26.49;49.27
57574;BME280;68988;49.000;21.242;2023-07-30T01:16:36;98053.50;;;26.46;49.25
57574;BME280;68988;49.000;21.242;2023-07-30T01:19:01;98053.41;;;26.51;49.52
57574;BME280;68988;49.000;21.242;2023-07-30T01:21:34;98073.63;;;26.49;49.15
57574;BME280;68988;49.000;21.242;2023-07-30T01:24:00;98090.06;;;26.47;49.26
57574;BME280;68988;49.000;21.242;2023-07-30T01:26:45;98083.50;;;26.53;49.58
57574;BME280;68988;49.000;21.242;2023-07-30T01:29:17;98072.31;;;26.46;49.77
57574;BME280;68988;49.000;21.242;2023-07-30T01:31:44;98083.09;;;26.60;49.10
57574;BME280;68988;49.000;21.242;2023-07-30T01:34:13;98091.44;;;26.44;49.90
57574;BME280;68988;49.000;21.242;2023-07-30T01:36:39;98092.84;;;26.42;49.71
57574;BME280;68988;49.000;21.242;2023-07-30T01:39:05;98102.78;;;26.41;49.83
57574;BME280;68988;49.000;21.242;2023-07-30T01:41:31;98094.72;;;26.41;49.69
57574;BME280;68988;49.000;21.242;2023-07-30T01:43:56;98095.53;;;26.42;49.90
57574;BME280;68988;49.000;21.242;2023-07-30T01:46:22;98087.47;;;26.42;49.50
57574;BME280;68988;49.000;21.242;2023-07-30T01:48:47;98083.06;;;26.46;49.24
57574;BME280;68988;49.000;21.242;2023-07-30T01:51:13;98095.25;;;26.43;49.38
57574;BME280;68988;49.000;21.242;2023-07-30T01:53:38;98110.56;;;26.43;49.90
57574;BME280;68988;49.000;21.242;2023-07-30T01:56:03;98106.28;;;26.42;49.80
57574;BME280;68988;49.000;21.242;2023-07-30T01:58:29;98085.75;;;26.46;49.54
57574;BME280;68988;49.000;21.242;2023-07-30T02:00:54;98094.34;;;26.48;49.28
57574;BME280;68988;49.000;21.242;2023-07-30T02:03:19;98084.19;;;26.45;49.48
57574;BME280;68988;49.000;21.242;2023-07-30T02:05:45;98092.25;;;26.45;49.41
57574;BME280;68988;49.000;21.242;2023-07-30T02:08:11;98093.63;;;26.42;49.82
57574;BME280;68988;49.000;21.242;2023-07-30T02:10:38;98101.88;;;26.46;49.50
57574;BME280;68988;49.000;21.242;2023-07-30T02:13:03;98102.00;;;26.41;49.37
57574;BME280;68988;49.000;21.242;2023-07-30T02:15:29;98106.59;;;26.40;49.23
57574;BME280;68988;49.000;21.242;2023-07-30T02:17:54;98106.59;;;26.40;49.41
57574;BME280;68988;49.000;21.242;2023-07-30T02:20:20;98105.47;;;26.41;49.70
57574;BME280;68988;49.000;21.242;2023-07-30T02:22:45;98103.91;;;26.40;49.83
57574;BME280;68988;49.000;21.242;2023-07-30T02:25:10;98097.22;;;26.38;49.42
57574;BME280;68988;49.000;21.242;2023-07-30T02:27:36;98098.53;;;26.40;49.50
57574;BME280;68988;49.000;21.242;2023-07-30T02:30:02;98100.91;;;26.42;49.25
57574;BME280;68988;49.000;21.242;2023-07-30T02:32:28;98096.63;;;26.41;49.20
57574;BME280;68988;49.000;21.242;2023-07-30T02:34:54;98091.53;;;26.39;49.50
57574;BME280;68988;49.000;21.242;2023-07-30T02:37:19;98083.47;;;26.39;49.61
57574;BME280;68988;49.000;21.242;2023-07-30T02:39:44;98089.56;;;26.45;49.23
57574;BME280;68988;49.000;21.242;2023-07-30T02:42:10;98084.25;;;26.40;49.22
57574;BME280;68988;49.000;21.242;2023-07-30T02:44:35;98091.25;;;26.41;49.52
57574;BME280;68988;49.000;21.242;2023-07-30T02:47:00;98104.88;;;26.44;49.38
57574;BME280;68988;49.000;21.242;2023-07-30T02:49:26;98100.38;;;26.40;49.27
57574;BME280;68988;49.000;21.242;2023-07-30T02:51:51;98097.22;;;26.38;49.15
57574;BME280;68988;49.000;21.242;2023-07-30T02:54:16;98095.84;;;26.40;49.28
57574;BME280;68988;49.000;21.242;2023-07-30T02:56:43;98090.44;;;26.40;49.50
57574;BME280;68988;49.000;21.242;2023-07-30T02:59:08;98089.63;;;26.40;49.07
57574;BME280;68988;49.000;21.242;2023-07-30T03:01:34;98083.78;;;26.38;49.21
57574;BME280;68988;49.000;21.242;2023-07-30T03:03:59;98094.53;;;26.38;49.11
57574;BME280;68988;49.000;21.242;2023-07-30T03:06:24;98095.00;;;26.40;49.26
57574;BME280;68988;49.000;21.242;2023-07-30T03:08:50;98094.22;;;26.39;48.85
57574;BME280;68988;49.000;21.242;2023-07-30T03:11:15;98108.75;;;26.38;49.28
57574;BME280;68988;49.000;21.242;2023-07-30T03:13:40;98102.00;;;26.41;49.08
57574;BME280;68988;49.000;21.242;2023-07-30T03:16:06;98098.00;;;26.38;49.16
57574;BME280;68988;49.000;21.242;2023-07-30T03:18:31;98098.81;;;26.39;49.52
57574;BME280;68988;49.000;21.242;2023-07-30T03:21:00;98104.19;;;26.39;49.41
57574;BME280;68988;49.000;21.242;2023-07-30T03:23:26;98105.88;;;26.35;49.18
57574;BME280;68988;49.000;21.242;2023-07-30T03:25:51;98112.56;;;26.37;49.13
57574;BME280;68988;49.000;21.242;2023-07-30T03:28:16;98114.41;;;26.37;49.36
57574;BME280;68988;49.000;21.242;2023-07-30T03:30:42;98107.47;;;26.36;48.80
57574;BME280;68988;49.000;21.242;2023-07-30T03:33:07;98102.88;;;26.36;49.35
57574;BME280;68988;49.000;21.242;2023-07-30T03:35:32;98108.56;;;26.35;49.37
57574;BME280;68988;49.000;21.242;2023-07-30T03:37:58;98107.66;;;26.39;48.77
57574;BME280;68988;49.000;21.242;2023-07-30T03:40:23;98113.34;;;26.38;48.91
57574;BME280;68988;49.000;21.242;2023-07-30T03:42:49;98118.72;;;26.38;49.24
57574;BME280;68988;49.000;21.242;2023-07-30T03:45:14;98122.00;;;26.35;49.33
57574;BME280;68988;49.000;21.242;2023-07-30T03:47:39;98116.63;;;26.35;49.07
57574;BME280;68988;49.000;21.242;2023-07-30T03:50:05;98117.41;;;26.35;48.80
57574;BME280;68988;49.000;21.242;2023-07-30T03:52:30;98120.91;;;26.36;48.96
57574;BME280;68988;49.000;21.242;2023-07-30T03:54:56;98125.47;;;26.35;48.75
57574;BME280;68988;49.000;21.242;2023-07-30T03:57:21;98118.72;;;26.38;48.77
57574;BME280;68988;49.000;21.242;2023-07-30T03:59:46;98119.78;;;26.37;49.06
57574;BME280;68988;49.000;21.242;2023-07-30T04:02:12;98120.09;;;26.35;48.95
57574;BME280;68988;49.000;21.242;2023-07-30T04:04:41;98117.72;;;26.34;49.18
57574;BME280;68988;49.000;21.242;2023-07-30T04:07:08;98114.41;;;26.37;48.67
57574;BME280;68988;49.000;21.242;2023-07-30T04:09:34;98114.41;;;26.37;48.62
57574;BME280;68988;49.000;21.242;2023-07-30T04:11:59;98120.09;;;26.35;48.88
57574;BME280;68988;49.000;21.242;2023-07-30T04:14:24;98122.00;;;26.35;49.00
57574;BME280;68988;49.000;21.242;2023-07-30T04:16:50;98124.88;;;26.38;49.08
57574;BME280;68988;49.000;21.242;2023-07-30T04:19:15;98130.84;;;26.35;48.54
57574;BME280;68988;49.000;21.242;2023-07-30T04:21:40;98141.09;;;26.33;48.95
57574;BME280;68988;49.000;21.242;2023-07-30T04:24:06;98135.94;;;26.37;49.09
57574;BME280;68988;49.000;21.242;2023-07-30T04:26:31;98143.41;;;26.40;48.86
57574;BME280;68988;49.000;21.242;2023-07-30T04:28:56;98137.53;;;26.38;48.59
57574;BME280;68988;49.000;21.242;2023-07-30T04:31:22;98137.03;;;26.36;48.85
57574;BME280;68988;49.000;21.242;2023-07-30T04:33:47;98136.22;;;26.35;48.61
57574;BME280;68988;49.000;21.242;2023-07-30T04:36:13;98141.81;;;26.39;48.64
57574;BME280;68988;49.000;21.242;2023-07-30T04:38:38;98147.19;;;26.39;48.65
57574;BME280;68988;49.000;21.242;2023-07-30T04:41:03;98148.28;;;26.38;48.87
57574;BME280;68988;49.000;21.242;2023-07-30T04:43:30;98138.91;;;26.35;48.97
57574;BME280;68988;49.000;21.242;2023-07-30T04:45:55;98147.78;;;26.36;48.77
57574;BME280;68988;49.000;21.242;2023-07-30T04:48:20;98155.56;;;26.37;48.83
57574;BME280;68988;49.000;21.242;2023-07-30T04:50:46;98170.56;;;26.38;48.72
57574;BME280;68988;49.000;21.242;2023-07-30T04:53:11;98167.09;;;26.38;48.83
57574;BME280;68988;49.000;21.242;2023-07-30T04:55:36;98169.19;;;26.41;48.89
57574;BME280;68988;49.000;21.242;2023-07-30T04:58:02;98162.22;;;26.40;48.92
57574;BME280;68988;49.000;21.242;2023-07-30T05:00:28;98157.66;;;26.40;48.64
57574;BME280;68988;49.000;21.242;2023-07-30T05:02:54;98164.84;;;26.45;48.72
57574;BME280;68988;49.000;21.242;2023-07-30T05:05:19;98169.09;;;26.46;48.70
57574;BME280;68988;49.000;21.242;2023-07-30T05:07:44;98162.16;;;26.45;48.69
57574;BME280;68988;49.000;21.242;2023-07-30T05:10:10;98161.03;;;26.46;48.92
57574;BME280;68988;49.000;21.242;2023-07-30T05:12:36;98160.75;;;26.48;49.02
57574;BME280;68988;49.000;21.242;2023-07-30T05:15:02;98162.34;;;26.49;48.92
57574;BME280;68988;49.000;21.242;2023-07-30T05:17:28;98165.34;;;26.47;48.88
57574;BME280;68988;49.000;21.242;2023-07-30T05:19:54;98165.81;;;26.49;48.78
57574;BME280;68988;49.000;21.242;2023-07-30T05:22:19;98161.56;;;26.48;48.72
57574;BME280;68988;49.000;21.242;2023-07-30T05:24:44;98157.75;;;26.49;48.60
57574;BME280;68988;49.000;21.242;2023-07-30T05:27:10;98163.94;;;26.50;48.64
57574;BME280;68988;49.000;21.242;2023-07-30T05:29:35;98164.44;;;26.52;48.65
57574;BME280;68988;49.000;21.242;2023-07-30T05:32:00;98159.56;;;26.54;48.67
57574;BME280;68988;49.000;21.242;2023-07-30T05:34:26;98160.97;;;26.51;48.58
57574;BME280;68988;49.000;21.242;2023-07-30T05:36:51;98166.34;;;26.51;48.70
57574;BME280;68988;49.000;21.242;2023-07-30T05:39:16;98170.13;;;26.50;48.53
57574;BME280;68988;49.000;21.242;2023-07-30T05:41:42;98163.66;;;26.51;48.90
57574;BME280;68988;49.000;21.242;2023-07-30T05:44:07;98163.56;;;26.56;48.72
57574;BME280;68988;49.000;21.242;2023-07-30T05:46:32;98167.34;;;26.55;48.77
57574;BME280;68988;49.000;21.242;2023-07-30T05:48:58;98164.94;;;26.54;48.48
57574;BME280;68988;49.000;21.242;2023-07-30T05:51:23;98160.38;;;26.54;48.46
57574;BME280;68988;49.000;21.242;2023-07-30T05:53:49;98160.38;;;26.54;48.58
57574;BME280;68988;49.000;21.242;2023-07-30T05:56:14;98153.59;;;26.57;48.49
57574;BME280;68988;49.000;21.242;2023-07-30T05:58:39;98151.72;;;26.57;48.71
57574;BME280;68988;49.000;21.242;2023-07-30T06:01:05;98157.09;;;26.57;48.59
57574;BME280;68988;49.000;21.242;2023-07-30T06:03:30;98157.09;;;26.57;48.81
57574;BME280;68988;49.000;21.242;2023-07-30T06:05:56;98162.19;;;26.59;48.79
57574;BME280;68988;49.000;21.242;2023-07-30T06:08:21;98163.25;;;26.58;48.38
57574;BME280;68988;49.000;21.242;2023-07-30T06:10:47;98165.16;;;26.57;48.85
57574;BME280;68988;49.000;21.242;2023-07-30T06:13:12;98158.59;;;26.63;48.70
57574;BME280;68988;49.000;21.242;2023-07-30T06:15:37;98166.59;;;26.69;48.42
57574;BME280;68988;49.000;21.242;2023-07-30T06:18:03;98171.38;;;26.72;48.40
57574;BME280;68988;49.000;21.242;2023-07-30T06:20:29;98174.78;;;26.77;48.19
57574;BME280;68988;49.000;21.242;2023-07-30T06:22:55;98171.22;;;26.82;48.28
57574;BME280;68988;49.000;21.242;2023-07-30T06:25:20;98178.47;;;26.82;48.37
57574;BME280;68988;49.000;21.242;2023-07-30T06:27:46;98169.50;;;26.86;48.15
57574;BME280;68988;49.000;21.242;2023-07-30T06:30:12;98176.47;;;26.87;48.09
57574;BME280;68988;49.000;21.242;2023-07-30T06:32:37;98177.38;;;26.83;48.26
57574;BME280;68988;49.000;21.242;2023-07-30T06:35:03;98179.38;;;26.91;47.99
57574;BME280;68988;49.000;21.242;2023-07-30T06:37:28;98181.75;;;26.92;48.33
57574;BME280;68988;49.000;21.242;2023-07-30T06:39:54;98172.50;;;26.98;47.65
57574;BME280;68988;49.000;21.242;2023-07-30T06:42:19;98162.84;;;26.97;47.87
57574;BME280;68988;49.000;21.242;2023-07-30T06:44:44;98165.72;;;27.01;48.10
57574;BME280;68988;49.000;21.242;2023-07-30T06:47:10;98171.41;;;27.00;48.14
57574;BME280;68988;49.000;21.242;2023-07-30T06:49:36;98174.00;;;27.05;47.88
57574;BME280;68988;49.000;21.242;2023-07-30T06:52:02;98170.22;;;27.06;48.01
57574;BME280;68988;49.000;21.242;2023-07-30T06:54:29;98166.50;;;27.02;48.31
57574;BME280;68988;49.000;21.242;2023-07-30T06:56:54;98172.41;;;27.04;48.55
57574;BME280;68988;49.000;21.242;2023-07-30T06:59:20;98173.59;;;26.97;48.82
57574;BME280;68988;49.000;21.242;2023-07-30T07:01:45;98171.22;;;26.96;48.69
57574;BME280;68988;49.000;21.242;2023-07-30T07:04:10;98172.00;;;26.96;49.08
57574;BME280;68988;49.000;21.242;2023-07-30T07:06:36;98168.81;;;26.94;48.97
57574;BME280;68988;49.000;21.242;2023-07-30T07:09:01;98165.44;;;27.03;49.36
57574;BME280;68988;49.000;21.242;2023-07-30T07:11:26;98157.84;;;27.05;48.92
57574;BME280;68988;49.000;21.242;2023-07-30T07:13:52;98156.28;;;27.04;49.05
57574;BME280;68988;49.000;21.242;2023-07-30T07:16:17;98150.88;;;27.04;49.58
57574;BME280;68988;49.000;21.242;2023-07-30T07:18:42;98160.03;;;27.03;49.58
57574;BME280;68988;49.000;21.242;2023-07-30T07:21:08;98152.69;;;27.08;49.32
57574;BME280;68988;49.000;21.242;2023-07-30T07:23:33;98150.78;;;27.09;49.21
57574;BME280;68988;49.000;21.242;2023-07-30T07:25:58;98153.47;;;27.09;49.58
57574;BME280;68988;49.000;21.242;2023-07-30T07:28:24;98154.06;;;27.06;49.66
57574;BME280;68988;49.000;21.242;2023-07-30T07:30:50;98158.84;;;27.09;49.39
57574;BME280;68988;49.000;21.242;2023-07-30T07:33:15;98165.84;;;27.10;49.67
57574;BME280;68988;49.000;21.242;2023-07-30T07:35:40;98166.22;;;27.17;49.11
57574;BME280;68988;49.000;21.242;2023-07-30T07:38:06;98162.53;;;27.13;49.72
57574;BME280;68988;49.000;21.242;2023-07-30T07:40:38;98157.94;;;27.13;49.72
57574;BME280;68988;49.000;21.242;2023-07-30T07:43:07;98153.16;;;27.10;49.88
57574;BME280;68988;49.000;21.242;2023-07-30T07:45:33;98157.47;;;27.11;49.64
57574;BME280;68988;49.000;21.242;2023-07-30T07:47:59;98157.75;;;27.10;49.81
57574;BME280;68988;49.000;21.242;2023-07-30T07:50:25;98155.25;;;27.13;50.21
57574;BME280;68988;49.000;21.242;2023-07-30T07:52:50;98148.28;;;27.12;50.26
57574;BME280;68988;49.000;21.242;2023-07-30T07:55:16;98143.72;;;27.13;49.99
57574;BME280;68988;49.000;21.242;2023-07-30T07:57:41;98142.88;;;27.12;50.32
57574;BME280;68988;49.000;21.242;2023-07-30T08:00:07;98142.09;;;27.12;49.93
57574;BME280;68988;49.000;21.242;2023-07-30T08:02:34;98141.31;;;27.11;50.01
57574;BME280;68988;49.000;21.242;2023-07-30T08:04:59;98137.81;;;27.11;50.43
57574;BME280;68988;49.000;21.242;2023-07-30T08:07:24;98135.94;;;27.11;50.12
57574;BME280;68988;49.000;21.242;2023-07-30T08:09:50;98128.66;;;27.12;50.41
57574;BME280;68988;49.000;21.242;2023-07-30T08:12:16;98133.53;;;27.10;50.65
57574;BME280;68988;49.000;21.242;2023-07-30T08:14:42;98135.34;;;27.14;50.79
57574;BME280;68988;49.000;21.242;2023-07-30T08:17:07;98132.66;;;27.14;50.44
57574;BME280;68988;49.000;21.242;2023-07-30T08:19:32;98135.63;;;27.13;50.53
57574;BME280;68988;49.000;21.242;2023-07-30T08:21:58;98134.63;;;27.23;50.88
57574;BME280;68988;49.000;21.242;2023-07-30T08:24:24;98132.34;;;27.16;50.76
57574;BME280;68988;49.000;21.242;2023-07-30T08:26:49;98139.31;;;27.17;50.78
57574;BME280;68988;49.000;21.242;2023-07-30T08:29:15;98138.69;;;27.20;50.88
57574;BME280;68988;49.000;21.242;2023-07-30T08:31:41;98133.91;;;27.17;51.00
57574;BME280;68988;49.000;21.242;2023-07-30T08:34:06;98145.19;;;27.19;51.13
57574;BME280;68988;49.000;21.242;2023-07-30T08:36:32;98140.31;;;27.21;50.87
57574;BME280;68988;49.000;21.242;2023-07-30T08:38:57;98142.50;;;27.19;51.08
57574;BME280;68988;49.000;21.242;2023-07-30T08:41:23;98143.09;;;27.16;51.28
57574;BME280;68988;49.000;21.242;2023-07-30T08:43:49;98149.88;;;27.13;50.97
57574;BME280;68988;49.000;21.242;2023-07-30T08:46:15;98156.03;;;27.14;50.96
57574;BME280;68988;49.000;21.242;2023-07-30T08:48:41;98151.06;;;27.21;50.82
57574;BME280;68988;49.000;21.242;2023-07-30T08:51:06;98150.38;;;27.15;51.20
57574;BME280;68988;49.000;21.242;2023-07-30T08:53:32;98148.97;;;27.18;50.90
57574;BME280;68988;49.000;21.242;2023-07-30T08:55:58;98149.75;;;27.19;50.81
57574;BME280;68988;49.000;21.242;2023-07-30T08:58:25;98144.19;;;27.15;51.27
57574;BME280;68988;49.000;21.242;2023-07-30T09:00:53;98147.06;;;27.19;51.29
57574;BME280;68988;49.000;21.242;2023-07-30T09:03:20;98150.06;;;27.17;51.20
57574;BME280;68988;49.000;21.242;2023-07-30T09:05:48;98153.28;;;27.19;51.08
57574;BME280;68988;49.000;21.242;2023-07-30T09:08:14;98143.09;;;27.16;51.04
57574;BME280;68988;49.000;21.242;2023-07-30T09:10:40;98138.31;;;27.13;51.41
57574;BME280;68988;49.000;21.242;2023-07-30T09:13:05;98138.63;;;27.11;51.41
57574;BME280;68988;49.000;21.242;2023-07-30T09:15:37;98136.13;;;27.15;51.10
57574;BME280;68988;49.000;21.242;2023-07-30T09:18:04;98146.69;;;27.11;51.21
57574;BME280;68988;49.000;21.242;2023-07-30T09:20:40;98146.88;;;27.15;51.21
57574;BME280;68988;49.000;21.242;2023-07-30T09:23:06;98129.72;;;27.11;51.35
57574;BME280;68988;49.000;21.242;2023-07-30T09:25:33;98133.03;;;27.08;51.57
57574;BME280;68988;49.000;21.242;2023-07-30T09:27:58;98128.94;;;27.10;51.40
57574;BME280;68988;49.000;21.242;2023-07-30T09:30:25;98124.88;;;27.13;50.90
57574;BME280;68988;49.000;21.242;2023-07-30T09:32:55;98122.66;;;27.15;51.29
57574;BME280;68988;49.000;21.242;2023-07-30T09:35:21;98125.97;;;27.12;51.07
57574;BME280;68988;49.000;21.242;2023-07-30T09:37:50;98127.56;;;27.13;50.94
57574;BME280;68988;49.000;21.242;2023-07-30T09:40:16;98129.72;;;27.11;51.02
57574;BME280;68988;49.000;21.242;2023-07-30T09:42:48;98125.97;;;27.12;51.44
57574;BME280;68988;49.000;21.242;2023-07-30T09:45:36;98131.53;;;27.15;51.32
57574;BME280;68988;49.000;21.242;2023-07-30T09:48:03;98128.75;;;27.07;51.58
57574;BME280;68988;49.000;21.242;2023-07-30T09:50:36;98131.03;;;27.13;51.49
57574;BME280;68988;49.000;21.242;2023-07-30T09:53:03;98129.72;;;27.11;51.04
57574;BME280;68988;49.000;21.242;2023-07-30T09:55:29;98129.25;;;27.09;51.26
57574;BME280;68988;49.000;21.242;2023-07-30T09:57:54;98121.66;;;27.11;51.32
57574;BME280;68988;49.000;21.242;2023-07-30T10:00:20;98126.56;;;27.09;51.43
57574;BME280;68988;49.000;21.242;2023-07-30T10:02:47;98126.56;;;27.09;51.07
57574;BME280;68988;49.000;21.242;2023-07-30T10:05:18;98134.50;;;27.14;51.03
57574;BME280;68988;49.000;21.242;2023-07-30T10:08:08;98138.69;;;27.20;50.90
57574;BME280;68988;49.000;21.242;2023-07-30T10:10:34;98130.13;;;27.18;51.14
57574;BME280;68988;49.000;21.242;2023-07-30T10:13:04;98131.81;;;27.14;51.22
57574;BME280;68988;49.000;21.242;2023-07-30T10:15:34;98128.53;;;27.17;51.08
57574;BME280;68988;49.000;21.242;2023-07-30T10:17:59;98128.84;;;27.15;51.10
57574;BME280;68988;49.000;21.242;2023-07-30T10:20:26;98124.56;;;27.14;51.18
57574;BME280;68988;49.000;21.242;2023-07-30T10:22:54;98133.91;;;27.17;50.83
57574;BME280;68988;49.000;21.242;2023-07-30T10:25:43;98125.25;;;27.20;50.67
57574;BME280;68988;49.000;21.242;2023-07-30T10:28:26;98124.16;;;27.21;50.63
57574;BME280;68988;49.000;21.242;2023-07-30T10:30:56;98119.06;;;27.20;50.52
57574;BME280;68988;49.000;21.242;2023-07-30T10:33:22;98111.41;;;27.13;50.78
57574;BME280;68988;49.000;21.242;2023-07-30T10:35:47;98112.09;;;27.19;51.09
57574;BME280;68988;49.000;21.242;2023-07-30T10:38:29;98114.78;;;27.19;50.57
57574;BME280;68988;49.000;21.242;2023-07-30T10:41:15;98105.78;;;27.23;50.66
57574;BME280;68988;49.000;21.242;2023-07-30T10:43:48;98100.53;;;27.18;50.57
57574;BME280;68988;49.000;21.242;2023-07-30T10:46:15;98094.16;;;27.14;50.44
57574;BME280;68988;49.000;21.242;2023-07-30T10:48:44;98089.28;;;27.16;50.36
57574;BME280;68988;49.000;21.242;2023-07-30T10:51:12;98093.53;;;27.17;50.58
57574;BME280;68988;49.000;21.242;2023-07-30T10:53:37;98090.56;;;27.19;50.75
57574;BME280;68988;49.000;21.242;2023-07-30T10:56:05;98092.63;;;27.22;50.23
57574;BME280;68988;49.000;21.242;2023-07-30T10:58:32;98102.91;;;27.20;50.26
57574;BME280;68988;49.000;21.242;2023-07-30T11:00:58;98105.78;;;27.23;50.22
57574;BME280;68988;49.000;21.242;2023-07-30T11:03:27;98101.84;;;27.21;50.57
57574;BME280;68988;49.000;21.242;2023-07-30T11:05:53;98102.63;;;27.21;50.38
57574;BME280;68988;49.000;21.242;2023-07-30T11:08:18;98103.09;;;27.23;50.31
57574;BME280;68988;49.000;21.242;2023-07-30T11:10:47;98108.00;;;27.21;50.06
57574;BME280;68988;49.000;21.242;2023-07-30T11:13:15;98109.31;;;27.24;50.42
57574;BME280;68988;49.000;21.242;2023-07-30T11:15:42;98106.91;;;27.22;49.76
57574;BME280;68988;49.000;21.242;2023-07-30T11:18:08;98096.94;;;27.23;50.00
57574;BME280;68988;49.000;21.242;2023-07-30T11:20:34;98093.47;;;27.22;50.07
57574;BME280;68988;49.000;21.242;2023-07-30T11:22:59;98092.03;;;27.25;50.15
57574;BME280;68988;49.000;21.242;2023-07-30T11:25:24;98082.09;;;27.25;49.90
57574;BME280;68988;49.000;21.242;2023-07-30T11:27:50;98087.47;;;27.25;49.58
57574;BME280;68988;49.000;21.242;2023-07-30T11:30:16;98077.91;;;27.19;50.19
57574;BME280;68988;49.000;21.242;2023-07-30T11:32:42;98074.63;;;27.22;50.54
57574;BME280;68988;49.000;21.242;2023-07-30T11:35:10;98065.41;;;27.23;50.23
57574;BME280;68988;49.000;21.242;2023-07-30T11:37:36;98057.94;;;27.20;50.43
57574;BME280;68988;49.000;21.242;2023-07-30T11:40:07;98072.53;;;27.19;50.67
57574;BME280;68988;49.000;21.242;2023-07-30T11:42:34;98073.50;;;27.23;50.45
57574;BME280;68988;49.000;21.242;2023-07-30T11:45:16;98074.50;;;27.27;50.72
57574;BME280;68988;49.000;21.242;2023-07-30T11:47:42;98070.91;;;27.18;51.03
57574;BME280;68988;49.000;21.242;2023-07-30T11:50:07;98076.31;;;27.18;50.74
57574;BME280;68988;49.000;21.242;2023-07-30T11:52:33;98085.69;;;27.21;51.26
57574;BME280;68988;49.000;21.242;2023-07-30T11:55:04;98093.47;;;27.22;51.14
57574;BME280;68988;49.000;21.242;2023-07-30T11:57:36;98098.94;;;27.17;50.94
57574;BME280;68988;49.000;21.242;2023-07-30T12:00:02;98112.38;;;27.17;50.48
57574;BME280;68988;49.000;21.242;2023-07-30T12:02:33;98118.47;;;27.09;50.47
57574;BME280;68988;49.000;21.242;2023-07-30T12:04:58;98117.41;;;27.10;50.01
57574;BME280;68988;49.000;21.242;2023-07-30T12:07:24;98136.00;;;27.06;49.77
57574;BME280;68988;49.000;21.242;2023-07-30T12:09:50;98150.88;;;27.04;49.65
57574;BME280;68988;49.000;21.242;2023-07-30T12:12:15;98154.38;;;27.04;49.28
57574;BME280;68988;49.000;21.242;2023-07-30T12:14:53;98183.19;;;27.04;49.52
57574;BME280;68988;49.000;21.242;2023-07-30T12:17:19;98174.41;;;26.98;49.30
57574;BME280;68988;49.000;21.242;2023-07-30T12:19:44;98161.25;;;26.96;49.37
57574;BME280;68988;49.000;21.242;2023-07-30T12:22:09;98175.00;;;26.95;49.33
57574;BME280;68988;49.000;21.242;2023-07-30T12:24:35;98171.00;;;26.92;49.09
57574;BME280;68988;49.000;21.242;2023-07-30T12:27:00;98184.56;;;26.87;49.40
57574;BME280;68988;49.000;21.242;2023-07-30T12:29:26;98201.28;;;26.84;48.94
57574;BME280;68988;49.000;21.242;2023-07-30T12:31:52;98202.91;;;26.85;48.84
57574;BME280;68988;49.000;21.242;2023-07-30T12:34:19;98195.91;;;26.84;48.80
57574;BME280;68988;49.000;21.242;2023-07-30T12:36:45;98192.13;;;26.85;48.96
57574;BME280;68988;49.000;21.242;2023-07-30T12:39:10;98198.09;;;26.82;49.09
57574;BME280;68988;49.000;21.242;2023-07-30T12:41:36;98209.25;;;26.89;48.64
57574;BME280;68988;49.000;21.242;2023-07-30T12:44:01;98210.16;;;26.85;48.67
57574;BME280;68988;49.000;21.242;2023-07-30T12:46:28;98219.03;;;26.85;48.83